Time;durP1;ratioP1;P1;durP2;ratioP2;P2;SDS_P1;SDS_P2;PMS_P1;PMS_P2;Temp;Humidity;BMP_temperature;BMP_pressure;BME280_temperature;BME280_humidity;BME280_pressure;Samples;Min_cycle;Max_cycle;Signal;HPM_P1;HPM_P2
2023/10/17 00:14:57;;;;;;;6.07;5.17;;;;;;;;;;4921653;29;20228;-81
2023/10/17 00:18:14;;;;;;;8.53;5.73;;;;;;;;;;4923611;29;20185;-82
2023/10/17 00:21:22;;;;;;;8.00;6.10;;;;;;;;;;4922254;29;20545;-81
2023/10/17 00:24:27;;;;;;;7.37;6.03;;;;;;;;;;4921789;29;20624;-81
2023/10/17 00:27:31;;;;;;;6.70;5.50;;;;;;;;;;4911677;29;20545;-82
2023/10/17 00:30:35;;;;;;;6.87;5.57;;;;;;;;;;4911609;29;20180;-81
2023/10/17 00:33:41;;;;;;;6.73;4.83;;;;;;;;;;4922286;29;20628;-81
2023/10/17 00:36:49;;;;;;;5.47;4.63;;;;;;;;;;4920670;29;20545;-81
2023/10/17 00:39:56;;;;;;;5.73;4.73;;;;;;;;;;4921747;29;21189;-81
2023/10/17 00:43:04;;;;;;;6.20;4.63;;;;;;;;;;4920466;29;20545;-81
2023/10/17 00:46:08;;;;;;;7.23;5.00;;;;;;;;;;4922963;29;20185;-82
2023/10/17 00:49:12;;;;;;;5.67;3.93;;;;;;;;;;4922703;29;20189;-82
2023/10/17 00:52:29;;;;;;;6.80;4.63;;;;;;;;;;4922444;29;20541;-82
2023/10/17 00:55:35;;;;;;;9.93;4.70;;;;;;;;;;4923021;29;20189;-82
2023/10/17 00:58:42;;;;;;;4.63;4.13;;;;;;;;;;4921580;29;20659;-81
2023/10/17 01:01:48;;;;;;;4.73;3.77;;;;;;;;;;4920686;29;20554;-81
2023/10/17 01:04:56;;;;;;;5.90;4.13;;;;;;;;;;4922557;29;20613;-81
2023/10/17 01:08:01;;;;;;;6.20;4.40;;;;;;;;;;4911427;29;20569;-81
2023/10/17 01:11:09;;;;;;;7.23;4.50;;;;;;;;;;4923647;29;20631;-82
2023/10/17 01:14:20;;;;;;;5.17;4.43;;;;;;;;;;4910717;29;21008;-82
2023/10/17 01:17:25;;;;;;;6.97;4.40;;;;;;;;;;4885824;29;20583;-82
2023/10/17 01:20:30;;;;;;;6.23;4.67;;;;;;;;;;4884160;29;20603;-81
2023/10/17 01:23:35;;;;;;;5.13;3.80;;;;;;;;;;4897898;29;20229;-81
2023/10/17 01:26:43;;;;;;;4.77;4.03;;;;;;;;;;4899832;29;20539;-82
2023/10/17 01:29:48;;;;;;;7.00;4.40;;;;;;;;;;4892353;29;21080;-81
2023/10/17 01:32:52;;;;;;;4.50;4.03;;;;;;;;;;4902425;29;20543;-81
2023/10/17 01:35:58;;;;;;;6.33;4.53;;;;;;;;;;4902964;29;20542;-81
2023/10/17 01:39:06;;;;;;;4.87;3.73;;;;;;;;;;4902898;29;20648;-82
2023/10/17 01:42:10;;;;;;;5.60;3.97;;;;;;;;;;4903498;29;20558;-82
2023/10/17 01:45:15;;;;;;;5.93;4.00;;;;;;;;;;4902664;29;20622;-82
2023/10/17 01:48:21;;;;;;;6.27;4.37;;;;;;;;;;4892139;29;20546;-81
2023/10/17 01:51:25;;;;;;;6.67;3.83;;;;;;;;;;4903218;29;20567;-81
2023/10/17 01:54:32;;;;;;;8.00;4.30;;;;;;;;;;4903283;29;20617;-81
2023/10/17 01:57:40;;;;;;;5.37;3.93;;;;;;;;;;4903234;29;20617;-81
2023/10/17 02:00:45;;;;;;;5.10;3.90;;;;;;;;;;4892327;29;20614;-82
2023/10/17 02:03:48;;;;;;;4.90;4.00;;;;;;;;;;4902845;29;20625;-82
2023/10/17 02:06:53;;;;;;;5.70;3.90;;;;;;;;;;4902324;29;20904;-82
2023/10/17 02:10:00;;;;;;;6.70;4.70;;;;;;;;;;4903629;29;20534;-81
2023/10/17 02:13:06;;;;;;;7.53;4.73;;;;;;;;;;4902100;29;20546;-81
2023/10/17 02:16:10;;;;;;;5.40;4.30;;;;;;;;;;4891435;29;20562;-82
2023/10/17 02:19:15;;;;;;;5.37;4.40;;;;;;;;;;4903304;29;20590;-81
2023/10/17 02:22:19;;;;;;;4.97;3.70;;;;;;;;;;4901555;29;20550;-82
2023/10/17 02:25:28;;;;;;;5.00;4.10;;;;;;;;;;4901933;29;20621;-81
2023/10/17 02:28:44;;;;;;;5.60;4.30;;;;;;;;;;4890720;29;20546;-81
2023/10/17 02:31:52;;;;;;;7.83;5.00;;;;;;;;;;4901954;29;20921;-81
2023/10/17 02:34:56;;;;;;;8.00;5.00;;;;;;;;;;4891481;29;20626;-82
2023/10/17 02:38:00;;;;;;;8.13;5.10;;;;;;;;;;4901371;29;20543;-81
2023/10/17 02:41:08;;;;;;;6.50;4.80;;;;;;;;;;4901436;29;20534;-81
2023/10/17 02:44:19;;;;;;;7.77;5.00;;;;;;;;;;4900908;29;20965;-82
2023/10/17 02:47:24;;;;;;;12.27;7.67;;;;;;;;;;4907008;29;20546;-82
2023/10/17 02:53:36;;;;;;;10.97;5.17;;;;;;;;;;4902883;29;20613;-83
2023/10/17 02:56:51;;;;;;;5.33;4.17;;;;;;;;;;4903258;29;20547;-82
2023/10/17 03:00:07;;;;;;;6.10;4.97;;;;;;;;;;4903847;29;20934;-83
2023/10/17 03:03:12;;;;;;;5.80;4.63;;;;;;;;;;4905065;29;20542;-83
2023/10/17 03:06:18;;;;;;;7.10;4.77;;;;;;;;;;4895995;29;20546;-82
2023/10/17 03:12:29;;;;;;;7.10;4.10;;;;;;;;;;4894572;29;20546;-82
2023/10/17 03:15:38;;;;;;;5.13;4.20;;;;;;;;;;4906048;29;20562;-82
2023/10/17 03:18:50;;;;;;;4.53;3.90;;;;;;;;;;4907240;29;20562;-82
2023/10/17 03:21:55;;;;;;;5.37;4.00;;;;;;;;;;4908903;29;20554;-82
2023/10/17 03:25:09;;;;;;;4.43;3.80;;;;;;;;;;4909699;29;20629;-82
2023/10/17 03:28:14;;;;;;;5.50;4.40;;;;;;;;;;4908639;29;20554;-81
2023/10/17 03:31:21;;;;;;;5.87;4.83;;;;;;;;;;4908052;29;20561;-81
2023/10/17 03:34:37;;;;;;;6.87;4.60;;;;;;;;;;4908141;29;20613;-82
2023/10/17 03:37:42;;;;;;;6.63;4.33;;;;;;;;;;4898332;29;20546;-82
2023/10/17 03:41:01;;;;;;;5.97;4.90;;;;;;;;;;4908905;29;20590;-82
2023/10/17 03:44:15;;;;;;;5.17;4.30;;;;;;;;;;4908310;29;20630;-82
2023/10/17 03:47:22;;;;;;;5.43;4.50;;;;;;;;;;4908521;29;20539;-81
2023/10/17 03:53:53;;;;;;;5.93;4.17;;;;;;;;;;4911729;29;20949;-81
2023/10/17 03:57:02;;;;;;;5.60;4.10;;;;;;;;;;4911328;29;20542;-81
2023/10/17 04:00:25;;;;;;;6.73;4.10;;;;;;;;;;4910639;29;20586;-82
2023/10/17 04:06:41;;;;;;;7.23;4.50;;;;;;;;;;4908781;29;20550;-82
2023/10/17 04:10:02;;;;;;;5.97;4.37;;;;;;;;;;4908252;29;20539;-81
2023/10/17 04:13:18;;;;;;;4.90;3.93;;;;;;;;;;4908331;29;20543;-81
2023/10/17 04:16:34;;;;;;;5.83;3.73;;;;;;;;;;4908484;29;20546;-81
2023/10/17 04:19:49;;;;;;;6.77;4.33;;;;;;;;;;4908256;29;20594;-81
2023/10/17 04:22:56;;;;;;;6.00;4.20;;;;;;;;;;4906747;29;20617;-82
2023/10/17 04:26:01;;;;;;;5.63;3.90;;;;;;;;;;4907745;29;20558;-82
2023/10/17 04:29:22;;;;;;;4.63;3.87;;;;;;;;;;4907257;29;20562;-82
2023/10/17 04:32:28;;;;;;;4.77;3.83;;;;;;;;;;4907219;29;20555;-82
2023/10/17 04:35:32;;;;;;;4.67;3.87;;;;;;;;;;4906151;29;20557;-82
2023/10/17 04:38:38;;;;;;;5.17;3.70;;;;;;;;;;4904398;29;20562;-82
2023/10/17 04:45:05;;;;;;;5.30;4.10;;;;;;;;;;4904778;29;20634;-81
2023/10/17 04:48:11;;;;;;;4.83;3.60;;;;;;;;;;4905911;29;21119;-81
2023/10/17 04:54:30;;;;;;;6.03;3.80;;;;;;;;;;4904946;29;20625;-82
2023/10/17 05:04:19;;;;;;;4.50;3.20;;;;;;;;;;4903710;29;20629;-81
2023/10/17 05:07:30;;;;;;;5.70;3.80;;;;;;;;;;4903634;29;20562;-82
2023/10/17 06:18:01;;;;;;;6.70;4.27;;;;;;;;;;4900770;29;20547;-82
2023/10/17 06:31:32;;;;;;;7.33;5.40;;;;;;;;;;4899588;29;20546;-81
2023/10/17 06:34:14;;;;;;;16.20;10.80;;;;;;;;;;4900214;29;20622;-82
2023/10/17 06:37:29;;;;;;;18.13;12.53;;;;;;;;;;4900363;29;20562;-82
2023/10/17 06:40:38;;;;;;;16.00;11.30;;;;;;;;;;4895826;29;20599;-82
2023/10/17 06:43:46;;;;;;;11.53;8.43;;;;;;;;;;4900049;29;20633;-82
2023/10/17 06:47:02;;;;;;;9.40;6.40;;;;;;;;;;4899927;29;20555;-82
2023/10/17 06:53:27;;;;;;;7.73;4.70;;;;;;;;;;4888264;29;20542;-82
2023/10/17 06:56:32;;;;;;;8.30;4.60;;;;;;;;;;4899128;29;20551;-82
2023/10/17 06:59:36;;;;;;;5.90;4.13;;;;;;;;;;4899895;29;20209;-81
2023/10/17 07:02:43;;;;;;;7.20;4.80;;;;;;;;;;4898073;29;20556;-81
2023/10/17 07:05:50;;;;;;;7.50;4.67;;;;;;;;;;4898517;29;20536;-82
2023/10/17 07:08:54;;;;;;;4.70;3.77;;;;;;;;;;4888254;29;20190;-83
2023/10/17 07:12:02;;;;;;;4.53;3.60;;;;;;;;;;4899795;29;20190;-82
2023/10/17 07:15:18;;;;;;;5.87;3.73;;;;;;;;;;4903007;29;20221;-82
2023/10/17 07:21:57;;;;;;;5.33;4.23;;;;;;;;;;4888626;29;20210;-81
2023/10/17 07:25:02;;;;;;;5.60;3.00;;;;;;;;;;4899662;29;20715;-81
2023/10/17 07:28:10;;;;;;;3.93;3.10;;;;;;;;;;4899825;29;20194;-82
2023/10/17 07:31:14;;;;;;;5.33;3.10;;;;;;;;;;4900095;29;20189;-82
2023/10/17 07:34:23;;;;;;;7.27;3.77;;;;;;;;;;4900428;29;20225;-82
2023/10/17 07:37:27;;;;;;;8.40;3.23;;;;;;;;;;4900140;29;20193;-81
2023/10/17 07:43:44;;;;;;;4.87;3.50;;;;;;;;;;4900474;29;20225;-82
2023/10/17 07:46:50;;;;;;;4.40;3.20;;;;;;;;;;4899214;29;20189;-82
2023/10/17 07:49:53;;;;;;;6.23;2.87;;;;;;;;;;4899703;29;20190;-82
2023/10/17 07:53:05;;;;;;;3.67;2.70;;;;;;;;;;4898595;29;20640;-82
2023/10/17 07:56:13;;;;;;;3.03;2.67;;;;;;;;;;4899392;29;20190;-82
2023/10/17 07:59:18;;;;;;;6.33;2.93;;;;;;;;;;4899467;29;20217;-82
2023/10/17 08:02:23;;;;;;;5.13;2.97;;;;;;;;;;4899388;29;20554;-82
2023/10/17 08:05:37;;;;;;;4.97;2.47;;;;;;;;;;4898922;29;20226;-82
2023/10/17 08:08:44;;;;;;;4.83;2.90;;;;;;;;;;4898656;29;20190;-82
2023/10/17 08:11:52;;;;;;;3.73;2.80;;;;;;;;;;4899044;29;20632;-82
2023/10/17 08:14:59;;;;;;;5.73;2.90;;;;;;;;;;4899249;29;20226;-82
2023/10/17 08:18:10;;;;;;;3.87;2.80;;;;;;;;;;4899021;29;20182;-82
2023/10/17 08:21:33;;;;;;;3.20;2.80;;;;;;;;;;4898510;29;20221;-82
2023/10/17 08:24:40;;;;;;;3.40;2.60;;;;;;;;;;4898464;29;20230;-82
2023/10/17 08:27:46;;;;;;;4.67;3.13;;;;;;;;;;4899024;29;20190;-82
2023/10/17 08:30:51;;;;;;;3.70;2.73;;;;;;;;;;4898331;29;20178;-82
2023/10/17 08:37:07;;;;;;;9.47;4.20;;;;;;;;;;4902180;29;20189;-82
2023/10/17 08:40:32;;;;;;;4.33;2.90;;;;;;;;;;4901755;29;20193;-82
2023/10/17 08:43:36;;;;;;;6.13;3.10;;;;;;;;;;4890880;29;20214;-82
2023/10/17 08:46:39;;;;;;;3.73;2.80;;;;;;;;;;4902065;29;20190;-82
2023/10/17 08:49:44;;;;;;;4.73;3.40;;;;;;;;;;4890494;29;20186;-82
2023/10/17 08:52:49;;;;;;;5.10;3.57;;;;;;;;;;4902080;29;20185;-82
2023/10/17 08:55:53;;;;;;;7.13;4.27;;;;;;;;;;4901694;29;20185;-82
2023/10/17 08:59:03;;;;;;;4.37;3.20;;;;;;;;;;4902080;29;20556;-82
2023/10/17 09:02:15;;;;;;;5.30;2.80;;;;;;;;;;4901359;29;20214;-82
2023/10/17 09:05:25;;;;;;;4.30;2.83;;;;;;;;;;4901977;29;20229;-81
2023/10/17 09:08:47;;;;;;;4.30;3.10;;;;;;;;;;4901255;29;20190;-81
2023/10/17 09:15:30;;;;;;;8.77;2.60;;;;;;;;;;4895285;29;20226;-82
2023/10/17 09:18:40;;;;;;;2.93;2.60;;;;;;;;;;4901981;29;20190;-82
2023/10/17 09:21:46;;;;;;;5.73;3.07;;;;;;;;;;4912178;29;20667;-82
2023/10/17 09:24:51;;;;;;;3.23;2.60;;;;;;;;;;4901925;29;20564;-82
2023/10/17 09:27:56;;;;;;;5.00;2.57;;;;;;;;;;4902056;29;20193;-82
2023/10/17 09:31:03;;;;;;;3.60;2.30;;;;;;;;;;4901148;29;20189;-82
2023/10/17 09:34:07;;;;;;;3.47;2.67;;;;;;;;;;4902524;29;20229;-82
2023/10/17 09:37:13;;;;;;;6.17;2.93;;;;;;;;;;4902215;29;20190;-82
2023/10/17 09:40:25;;;;;;;7.37;3.17;;;;;;;;;;4902340;29;20194;-82
2023/10/17 09:43:29;;;;;;;5.37;2.90;;;;;;;;;;4890600;29;20552;-82
2023/10/17 09:46:34;;;;;;;8.67;3.30;;;;;;;;;;4901046;29;20190;-82
2023/10/17 09:49:45;;;;;;;6.40;3.13;;;;;;;;;;4902019;29;20193;-82
2023/10/17 09:52:54;;;;;;;11.73;3.80;;;;;;;;;;4900954;29;20190;-82
2023/10/17 09:56:08;;;;;;;6.53;2.80;;;;;;;;;;4901871;29;20186;-83
2023/10/17 09:59:18;;;;;;;5.37;3.30;;;;;;;;;;4880602;29;20556;-82
2023/10/17 10:02:23;;;;;;;4.70;3.20;;;;;;;;;;4901093;29;20218;-82
2023/10/17 10:05:28;;;;;;;4.80;2.90;;;;;;;;;;4901077;29;20225;-82
2023/10/17 10:08:32;;;;;;;7.93;3.13;;;;;;;;;;4900587;29;20198;-82
2023/10/17 10:11:49;;;;;;;3.20;2.70;;;;;;;;;;4900157;29;20189;-82
2023/10/17 10:14:57;;;;;;;4.93;2.70;;;;;;;;;;4899832;29;20229;-82
2023/10/17 10:18:01;;;;;;;4.10;2.90;;;;;;;;;;4901562;29;20193;-82
2023/10/17 10:21:12;;;;;;;5.87;2.73;;;;;;;;;;4899766;29;20193;-82
2023/10/17 10:24:18;;;;;;;3.57;2.70;;;;;;;;;;4901341;29;20225;-82
2023/10/17 10:27:25;;;;;;;5.13;2.60;;;;;;;;;;4901148;29;20194;-82
2023/10/17 10:30:29;;;;;;;4.73;2.93;;;;;;;;;;4901305;29;20186;-82
2023/10/17 10:33:35;;;;;;;5.60;3.20;;;;;;;;;;4899994;29;20225;-82
2023/10/17 10:36:39;;;;;;;4.30;2.97;;;;;;;;;;4900376;29;20533;-82
2023/10/17 10:40:16;;;;;;;4.80;3.03;;;;;;;;;;4900519;29;20197;-82
2023/10/17 10:43:20;;;;;;;5.03;2.70;;;;;;;;;;4900428;29;20218;-82
2023/10/17 10:46:25;;;;;;;4.03;3.13;;;;;;;;;;4899273;29;20190;-82
2023/10/17 10:49:30;;;;;;;4.20;2.70;;;;;;;;;;4900396;29;20186;-82
2023/10/17 10:52:34;;;;;;;5.40;3.40;;;;;;;;;;4899311;29;20189;-82
2023/10/17 10:55:38;;;;;;;4.87;3.20;;;;;;;;;;4899819;29;20189;-82
2023/10/17 10:58:55;;;;;;;4.10;3.10;;;;;;;;;;4898300;29;20213;-82
2023/10/17 11:01:59;;;;;;;3.93;2.90;;;;;;;;;;4900204;29;20214;-82
2023/10/17 11:05:05;;;;;;;6.53;3.23;;;;;;;;;;4900364;29;20225;-87
2023/10/17 11:08:48;;;;;;;4.90;2.90;;;;;;;;;;5346363;23;20199;-88
2023/10/17 11:11:56;;;;;;;4.97;3.40;;;;;;;;;;4908006;29;20555;-86
2023/10/17 11:15:11;;;;;;;5.53;3.33;;;;;;;;;;4908199;29;20193;-86
2023/10/17 11:18:19;;;;;;;4.33;3.17;;;;;;;;;;4919320;29;20224;-86
2023/10/17 11:21:24;;;;;;;11.13;9.17;;;;;;;;;;4920222;29;20654;-86
2023/10/17 11:24:29;;;;;;;9.10;7.13;;;;;;;;;;4920636;29;20201;-86
2023/10/17 11:27:34;;;;;;;6.20;3.43;;;;;;;;;;4919846;29;20713;-86
2023/10/17 11:30:40;;;;;;;5.70;3.97;;;;;;;;;;4919427;29;20189;-86
2023/10/17 11:33:47;;;;;;;5.30;3.87;;;;;;;;;;4908728;29;20185;-86
2023/10/17 11:37:02;;;;;;;7.00;5.03;;;;;;;;;;4908466;29;20197;-86
2023/10/17 11:40:28;;;;;;;6.33;5.57;;;;;;;;;;4918237;29;20189;-86
2023/10/17 11:43:51;;;;;;;18.10;10.57;;;;;;;;;;4919794;29;20204;-85
2023/10/17 11:46:58;;;;;;;15.87;8.53;;;;;;;;;;4907973;29;20208;-86
2023/10/17 11:50:05;;;;;;;14.03;10.07;;;;;;;;;;4897178;29;20192;-85
2023/10/17 11:53:12;;;;;;;7.07;4.17;;;;;;;;;;4896775;29;20192;-86
2023/10/17 11:56:20;;;;;;;4.37;3.07;;;;;;;;;;4919066;29;20189;-85
2023/10/17 11:59:25;;;;;;;4.53;3.33;;;;;;;;;;4930111;29;20193;-86
2023/10/17 12:02:29;;;;;;;7.17;4.77;;;;;;;;;;4918578;29;20208;-85
2023/10/17 12:05:38;;;;;;;5.17;3.60;;;;;;;;;;4918407;29;20197;-86
2023/10/17 12:08:43;;;;;;;4.97;3.57;;;;;;;;;;4918601;29;20717;-84
2023/10/17 12:11:49;;;;;;;4.70;3.40;;;;;;;;;;4910644;29;20181;-85
2023/10/17 12:14:54;;;;;;;4.13;3.40;;;;;;;;;;4922240;29;20534;-84
2023/10/17 12:18:00;;;;;;;4.20;3.30;;;;;;;;;;4911476;29;20228;-85
2023/10/17 12:21:11;;;;;;;4.70;3.10;;;;;;;;;;4922424;29;20193;-86
2023/10/17 12:24:28;;;;;;;4.67;3.80;;;;;;;;;;4912172;29;20193;-85
2023/10/17 12:27:39;;;;;;;5.07;3.67;;;;;;;;;;4911445;29;20224;-86
2023/10/17 12:30:44;;;;;;;4.30;3.20;;;;;;;;;;4900944;29;20185;-85
2023/10/17 12:33:48;;;;;;;4.80;3.40;;;;;;;;;;4922431;29;20193;-86
2023/10/17 12:36:56;;;;;;;5.20;3.80;;;;;;;;;;4924515;29;20189;-83
2023/10/17 12:40:00;;;;;;;6.43;3.70;;;;;;;;;;4919593;29;20188;-84
2023/10/17 12:43:07;;;;;;;5.73;3.63;;;;;;;;;;4912812;29;20583;-83
2023/10/17 12:46:14;;;;;;;21.47;9.17;;;;;;;;;;4928574;29;20197;-84
2023/10/17 12:49:19;;;;;;;6.50;3.70;;;;;;;;;;4919352;29;20236;-85
2023/10/17 12:52:23;;;;;;;7.90;3.43;;;;;;;;;;4934140;29;20181;-84
2023/10/17 12:55:28;;;;;;;11.27;3.70;;;;;;;;;;4916894;29;20638;-83
2023/10/17 12:58:36;;;;;;;4.87;3.30;;;;;;;;;;4916916;29;20231;-85
2023/10/17 13:01:44;;;;;;;7.07;3.70;;;;;;;;;;4925876;29;20189;-85
2023/10/17 13:04:49;;;;;;;5.00;3.10;;;;;;;;;;4911510;29;20197;-86
2023/10/17 13:07:53;;;;;;;6.57;3.03;;;;;;;;;;4920665;29;20224;-86
2023/10/17 13:10:57;;;;;;;5.47;3.63;;;;;;;;;;4923227;29;20189;-86
2023/10/17 13:14:02;;;;;;;7.23;3.67;;;;;;;;;;4901040;29;20519;-86
2023/10/17 13:17:11;;;;;;;5.87;3.37;;;;;;;;;;4923373;29;20193;-86
2023/10/17 13:20:21;;;;;;;3.43;2.70;;;;;;;;;;4932892;29;20626;-85
2023/10/17 13:23:26;;;;;;;6.80;3.00;;;;;;;;;;4889630;29;20212;-85
2023/10/17 13:26:32;;;;;;;5.47;3.10;;;;;;;;;;4900448;29;20527;-85
2023/10/17 13:29:36;;;;;;;5.13;3.13;;;;;;;;;;4922387;29;20197;-85
2023/10/17 13:32:40;;;;;;;3.90;3.13;;;;;;;;;;4922069;29;20619;-86
2023/10/17 13:35:45;;;;;;;8.33;3.30;;;;;;;;;;4923718;29;20189;-86
2023/10/17 13:38:48;;;;;;;9.00;2.50;;;;;;;;;;4898598;29;20224;-85
2023/10/17 13:41:52;;;;;;;4.07;2.57;;;;;;;;;;4921408;29;20189;-86
2023/10/17 13:44:59;;;;;;;11.27;2.80;;;;;;;;;;4921306;29;20169;-86
2023/10/17 13:48:04;;;;;;;7.23;3.10;;;;;;;;;;4922965;29;20239;-86
2023/10/17 13:51:08;;;;;;;6.23;3.37;;;;;;;;;;4921628;29;20189;-86
2023/10/17 13:54:16;;;;;;;4.50;3.43;;;;;;;;;;4931940;29;20185;-86
2023/10/17 13:57:20;;;;;;;4.43;3.27;;;;;;;;;;4908891;29;20571;-85
2023/10/17 14:00:25;;;;;;;4.33;3.27;;;;;;;;;;4924586;29;20192;-85
2023/10/17 14:03:30;;;;;;;4.70;3.40;;;;;;;;;;4909875;29;20571;-85
2023/10/17 14:06:45;;;;;;;5.20;3.70;;;;;;;;;;4903718;29;20200;-87
2023/10/17 14:15:32;;;;;;;;;;;;;;;;;;;;;
2023/10/17 14:28:41;;;;;;;5.53;3.50;;;;;;;;;;4881457;29;20565;-83
2023/10/17 14:41:33;;;;;;;7.30;3.33;;;;;;;;;;4941294;29;20235;-84
2023/10/17 14:45:08;;;;;;;7.30;3.40;;;;;;;;;;4942668;29;20196;-82
2023/10/17 14:48:12;;;;;;;5.30;3.80;;;;;;;;;;4927509;29;20219;-81
2023/10/17 14:51:16;;;;;;;7.17;3.80;;;;;;;;;;4926104;29;20660;-82
2023/10/17 14:54:21;;;;;;;5.00;3.50;;;;;;;;;;4918126;29;20584;-82
2023/10/17 14:57:26;;;;;;;5.17;3.70;;;;;;;;;;4916736;29;20227;-81
2023/10/17 15:00:34;;;;;;;4.17;3.77;;;;;;;;;;4928927;29;20188;-83
2023/10/17 15:03:38;;;;;;;7.00;3.90;;;;;;;;;;4906930;29;20184;-81
2023/10/17 15:06:42;;;;;;;7.83;5.57;;;;;;;;;;4917071;29;20192;-82
2023/10/17 15:09:47;;;;;;;7.23;4.30;;;;;;;;;;4938769;29;20195;-82
2023/10/17 15:12:55;;;;;;;6.60;4.60;;;;;;;;;;4924880;29;20219;-82
2023/10/17 15:16:21;;;;;;;7.67;3.80;;;;;;;;;;4916497;29;20208;-82
2023/10/17 15:19:25;;;;;;;5.03;3.63;;;;;;;;;;4905343;29;20208;-84
2023/10/17 15:22:30;;;;;;;10.80;4.23;;;;;;;;;;4935220;29;20208;-84
2023/10/17 15:25:34;;;;;;;5.17;3.90;;;;;;;;;;4940866;29;20211;-84
2023/10/17 15:28:44;;;;;;;6.10;4.13;;;;;;;;;;4927762;29;20224;-84
2023/10/17 15:31:52;;;;;;;5.40;4.10;;;;;;;;;;4909290;29;20182;-84
2023/10/17 15:34:56;;;;;;;8.70;5.47;;;;;;;;;;4909426;29;20177;-85
2023/10/17 15:38:01;;;;;;;5.53;4.93;;;;;;;;;;4898129;29;20741;-85
2023/10/17 15:41:06;;;;;;;8.63;4.97;;;;;;;;;;4920241;29;20189;-83
2023/10/17 15:44:12;;;;;;;12.47;5.47;;;;;;;;;;4921347;29;20189;-84
2023/10/17 15:47:16;;;;;;;10.23;5.00;;;;;;;;;;4912634;29;20184;-85
2023/10/17 15:50:22;;;;;;;11.57;5.00;;;;;;;;;;4924356;29;20197;-83
2023/10/17 15:53:29;;;;;;;10.33;4.83;;;;;;;;;;4901635;29;20213;-83
2023/10/17 15:56:33;;;;;;;16.03;5.03;;;;;;;;;;4911896;29;20189;-84
2023/10/17 15:59:37;;;;;;;7.60;4.63;;;;;;;;;;4923102;29;20642;-83
2023/10/17 16:02:46;;;;;;;6.70;4.67;;;;;;;;;;4923598;29;20532;-84
2023/10/17 16:05:54;;;;;;;11.13;4.77;;;;;;;;;;4911228;29;20181;-84
2023/10/17 16:08:58;;;;;;;5.33;4.30;;;;;;;;;;4923265;29;20575;-83
2023/10/17 16:12:04;;;;;;;5.40;4.10;;;;;;;;;;4911756;29;20193;-84
2023/10/17 16:15:10;;;;;;;7.50;4.33;;;;;;;;;;4923612;29;20177;-84
2023/10/17 16:18:14;;;;;;;4.83;4.10;;;;;;;;;;4900405;29;20224;-83
2023/10/17 16:21:18;;;;;;;7.77;5.27;;;;;;;;;;4922485;29;20635;-83
2023/10/17 16:24:23;;;;;;;9.73;6.43;;;;;;;;;;4911352;29;20185;-83
2023/10/17 16:27:27;;;;;;;13.07;7.23;;;;;;;;;;4910876;29;20229;-83
2023/10/17 16:30:32;;;;;;;9.83;7.50;;;;;;;;;;4922314;29;20193;-82
2023/10/17 16:33:36;;;;;;;12.67;7.77;;;;;;;;;;4910437;29;20216;-82
2023/10/17 16:36:40;;;;;;;11.93;7.33;;;;;;;;;;4922457;29;20197;-83
2023/10/17 16:39:44;;;;;;;13.37;8.17;;;;;;;;;;4911222;29;20189;-82
2023/10/17 16:42:48;;;;;;;12.83;5.63;;;;;;;;;;4922219;29;20189;-82
2023/10/17 16:45:55;;;;;;;10.20;6.30;;;;;;;;;;4910885;29;20543;-83
2023/10/17 16:49:00;;;;;;;10.60;5.30;;;;;;;;;;4910272;29;20224;-82
2023/10/17 16:52:04;;;;;;;5.57;4.10;;;;;;;;;;4922367;29;20189;-83
2023/10/17 16:55:12;;;;;;;9.13;5.60;;;;;;;;;;4910669;29;20217;-84
2023/10/17 16:58:17;;;;;;;9.40;4.83;;;;;;;;;;4910167;29;20228;-83
2023/10/17 17:01:21;;;;;;;8.90;4.97;;;;;;;;;;4909947;29;20650;-84
2023/10/17 17:04:26;;;;;;;6.83;4.93;;;;;;;;;;4921769;29;20189;-83
2023/10/17 17:07:30;;;;;;;9.17;5.30;;;;;;;;;;4948711;23;20224;-84
2023/10/17 17:10:47;;;;;;;5.80;4.70;;;;;;;;;;4924210;29;20181;-84
2023/10/17 17:13:52;;;;;;;8.43;5.17;;;;;;;;;;4924620;29;20213;-85
2023/10/17 17:16:57;;;;;;;6.97;4.50;;;;;;;;;;4923795;29;20189;-84
2023/10/17 17:20:01;;;;;;;6.27;4.37;;;;;;;;;;4911509;29;20189;-84
2023/10/17 17:23:07;;;;;;;7.33;4.57;;;;;;;;;;4924527;29;20189;-84
2023/10/17 17:26:17;;;;;;;5.83;4.30;;;;;;;;;;4912325;29;20192;-84
2023/10/17 17:29:23;;;;;;;7.60;4.87;;;;;;;;;;4902547;29;20224;-84
2023/10/17 17:32:27;;;;;;;7.37;4.33;;;;;;;;;;4923633;29;20196;-84
2023/10/17 17:35:31;;;;;;;6.30;4.77;;;;;;;;;;4901450;29;20185;-84
2023/10/17 17:38:39;;;;;;;8.63;5.30;;;;;;;;;;4922365;29;20228;-85
2023/10/17 17:41:44;;;;;;;7.57;5.30;;;;;;;;;;4896911;29;20189;-85
2023/10/17 17:44:48;;;;;;;9.73;5.60;;;;;;;;;;4907496;29;20526;-85
2023/10/17 17:47:53;;;;;;;8.80;5.90;;;;;;;;;;4920269;29;20228;-85
2023/10/17 17:50:57;;;;;;;9.17;5.73;;;;;;;;;;4919344;29;20193;-85
2023/10/17 17:54:05;;;;;;;7.53;5.63;;;;;;;;;;4908150;29;20217;-85
2023/10/17 17:57:09;;;;;;;7.17;5.60;;;;;;;;;;4907675;29;20189;-86
2023/10/17 18:00:18;;;;;;;7.07;5.10;;;;;;;;;;4900455;29;20184;-85
2023/10/17 18:03:22;;;;;;;6.07;5.17;;;;;;;;;;4906882;29;20546;-85
2023/10/17 18:06:27;;;;;;;6.70;5.50;;;;;;;;;;4902194;29;20197;-85
2023/10/17 18:09:31;;;;;;;8.53;5.50;;;;;;;;;;4906220;29;20236;-85
2023/10/17 18:12:36;;;;;;;7.10;5.37;;;;;;;;;;4918577;29;20193;-86
2023/10/17 18:15:40;;;;;;;6.80;5.20;;;;;;;;;;4918505;29;20181;-85
2023/10/17 18:18:44;;;;;;;8.40;5.73;;;;;;;;;;4896248;29;20224;-85
2023/10/17 18:21:48;;;;;;;7.67;5.37;;;;;;;;;;4906961;29;20535;-86
2023/10/17 18:24:52;;;;;;;7.70;5.27;;;;;;;;;;4906884;29;20188;-85
2023/10/17 18:27:56;;;;;;;8.00;6.00;;;;;;;;;;4906753;29;20248;-86
2023/10/17 18:31:14;;;;;;;7.07;5.90;;;;;;;;;;4885578;29;20198;-85
2023/10/17 18:34:21;;;;;;;8.40;5.73;;;;;;;;;;4917305;29;20221;-85
2023/10/17 18:37:26;;;;;;;9.10;5.87;;;;;;;;;;4917381;29;20189;-86
2023/10/17 18:40:31;;;;;;;8.77;6.03;;;;;;;;;;4902050;29;20185;-85
2023/10/17 18:43:36;;;;;;;9.10;5.70;;;;;;;;;;4914128;29;20188;-85
2023/10/17 18:46:42;;;;;;;8.77;5.57;;;;;;;;;;4918178;29;20192;-85
2023/10/17 18:49:45;;;;;;;7.77;5.60;;;;;;;;;;4928663;29;20189;-86
2023/10/17 18:52:50;;;;;;;9.77;5.97;;;;;;;;;;4906601;29;20533;-85
2023/10/17 18:56:08;;;;;;;6.60;5.40;;;;;;;;;;4917521;29;20185;-86
2023/10/17 18:59:12;;;;;;;10.27;6.17;;;;;;;;;;4905929;29;20225;-86
2023/10/17 19:02:16;;;;;;;8.53;5.60;;;;;;;;;;4906556;29;20551;-85
2023/10/17 19:05:21;;;;;;;7.40;5.60;;;;;;;;;;4895555;29;20189;-85
2023/10/17 19:08:25;;;;;;;9.43;5.67;;;;;;;;;;4900976;29;20236;-85
2023/10/17 19:11:29;;;;;;;8.27;5.83;;;;;;;;;;4917625;29;20189;-85
2023/10/17 19:14:34;;;;;;;6.43;4.73;;;;;;;;;;4902078;29;20220;-86
2023/10/17 19:17:38;;;;;;;8.87;6.40;;;;;;;;;;4905785;29;20224;-85
2023/10/17 19:20:43;;;;;;;9.87;6.70;;;;;;;;;;4905237;29;20193;-86
2023/10/17 19:23:50;;;;;;;8.90;6.00;;;;;;;;;;4918128;29;20504;-86
2023/10/17 19:26:54;;;;;;;8.70;5.87;;;;;;;;;;4897937;29;20523;-85
2023/10/17 19:29:58;;;;;;;10.57;6.10;;;;;;;;;;4895779;29;20192;-85
2023/10/17 19:33:03;;;;;;;7.70;6.00;;;;;;;;;;4907358;29;20188;-85
2023/10/17 19:36:07;;;;;;;9.90;6.10;;;;;;;;;;4895798;29;20177;-85
2023/10/17 19:39:11;;;;;;;7.47;6.03;;;;;;;;;;4917884;29;20228;-85
2023/10/17 19:42:16;;;;;;;9.07;6.47;;;;;;;;;;4906053;29;20193;-85
2023/10/17 19:45:20;;;;;;;7.87;5.93;;;;;;;;;;4894955;29;20181;-85
2023/10/17 19:48:24;;;;;;;7.30;6.13;;;;;;;;;;4900498;29;20228;-85
2023/10/17 19:51:28;;;;;;;8.13;6.23;;;;;;;;;;4896675;29;20197;-86
2023/10/17 19:54:32;;;;;;;9.77;6.70;;;;;;;;;;4890545;29;20220;-85
2023/10/17 19:57:36;;;;;;;9.30;6.93;;;;;;;;;;4905530;29;20594;-85
2023/10/17 20:00:41;;;;;;;8.50;6.37;;;;;;;;;;4905820;29;20193;-85
2023/10/17 20:03:45;;;;;;;9.20;7.00;;;;;;;;;;4895512;29;20189;-86
2023/10/17 20:06:53;;;;;;;12.27;7.73;;;;;;;;;;4917608;29;20531;-86
2023/10/17 20:09:57;;;;;;;11.57;6.87;;;;;;;;;;4916389;29;20193;-85
2023/10/17 20:13:03;;;;;;;9.67;6.93;;;;;;;;;;4884576;29;20214;-86
2023/10/17 20:16:09;;;;;;;10.37;7.67;;;;;;;;;;4908605;29;20220;-86
2023/10/17 20:19:13;;;;;;;13.57;7.77;;;;;;;;;;4905435;29;20567;-85
2023/10/17 20:22:18;;;;;;;14.13;9.50;;;;;;;;;;4899949;29;20197;-85
2023/10/17 20:25:23;;;;;;;16.37;9.33;;;;;;;;;;4900120;29;20186;-85
2023/10/17 20:28:27;;;;;;;16.10;9.70;;;;;;;;;;4905839;29;20225;-85
2023/10/17 20:31:31;;;;;;;13.47;9.20;;;;;;;;;;4895899;29;20181;-85
2023/10/17 20:34:35;;;;;;;18.90;10.57;;;;;;;;;;4905133;29;20188;-85
2023/10/17 20:37:39;;;;;;;19.20;9.63;;;;;;;;;;4919674;29;20221;-85
2023/10/17 20:40:44;;;;;;;16.03;9.67;;;;;;;;;;4908370;29;20185;-85
2023/10/17 20:43:52;;;;;;;14.07;8.80;;;;;;;;;;4887568;29;20188;-86
2023/10/17 20:46:56;;;;;;;14.07;9.20;;;;;;;;;;4908346;29;20181;-85
2023/10/17 20:50:00;;;;;;;16.90;8.93;;;;;;;;;;4908374;29;20192;-85
2023/10/17 20:53:04;;;;;;;14.13;8.70;;;;;;;;;;4908472;29;20645;-85
2023/10/17 20:56:12;;;;;;;15.20;8.73;;;;;;;;;;4919326;29;20188;-85
2023/10/17 20:59:17;;;;;;;16.87;9.13;;;;;;;;;;4919883;29;20228;-85
2023/10/17 21:02:22;;;;;;;13.53;8.67;;;;;;;;;;4913321;29;20634;-85
2023/10/17 21:05:26;;;;;;;17.23;9.53;;;;;;;;;;4897250;29;20220;-85
2023/10/17 21:08:30;;;;;;;14.10;9.97;;;;;;;;;;4897236;29;20236;-85
2023/10/17 21:11:35;;;;;;;13.37;9.73;;;;;;;;;;4918945;29;20189;-85
2023/10/17 21:14:39;;;;;;;17.47;11.93;;;;;;;;;;4897538;29;20185;-85
2023/10/17 21:17:44;;;;;;;15.23;10.40;;;;;;;;;;4919149;29;20236;-85